createdAt,value
2022-10-07T00:01:01.239Z,100314.78
2022-10-07T00:03:29.018Z,100313.41
2022-10-07T00:06:05.187Z,100313.41
2022-10-07T00:08:32.842Z,100306.44
2022-10-07T00:11:08.062Z,100309.03
2022-10-07T00:13:36.544Z,100307.34
2022-10-07T00:16:07.055Z,100306.63
2022-10-07T00:18:35.429Z,100303.34
2022-10-07T00:21:06.963Z,100311.41
2022-10-07T00:23:34.470Z,100303.56
2022-10-07T00:26:06.858Z,100303.78
2022-10-07T00:28:34.071Z,100295.09
2022-10-07T00:31:04.070Z,100298.75
2022-10-07T00:33:32.406Z,100288.25
2022-10-07T00:35:58.990Z,100291.88
2022-10-07T00:38:25.835Z,100287.53
2022-10-07T00:40:52.579Z,100281.59
2022-10-07T00:43:23.415Z,100282.53
2022-10-07T00:45:51.188Z,100274.78
2022-10-07T00:48:23.186Z,100274.03
2022-10-07T00:50:52.437Z,100264.50
2022-10-07T00:53:19.993Z,100265.66
2022-10-07T00:55:46.668Z,100260.44
2022-10-07T00:58:13.496Z,100263.22
2022-10-07T01:00:40.694Z,100251.94
2022-10-07T01:03:07.289Z,100250.41
2022-10-07T01:05:33.890Z,100253.16
2022-10-07T01:08:01.291Z,100242.72
2022-10-07T01:10:38.649Z,100245.56
2022-10-07T01:13:14.720Z,100237.81
2022-10-07T01:15:59.381Z,100237.94
2022-10-07T01:18:36.157Z,100241.56
2022-10-07T01:21:06.043Z,100239.03
2022-10-07T01:24:01.596Z,100233.00
2022-10-07T01:26:57.528Z,100234.00
2022-10-07T01:29:41.193Z,100218.47
2022-10-07T01:32:10.704Z,100214.19
2022-10-07T01:34:38.637Z,100214.41
2022-10-07T01:37:08.674Z,100210.13
2022-10-07T01:39:42.613Z,100211.97
2022-10-07T01:42:10.614Z,100208.53
2022-10-07T01:44:38.996Z,100206.88
2022-10-07T01:47:05.641Z,100203.56
2022-10-07T01:49:32.197Z,100208.88
2022-10-07T01:52:30.582Z,100203.72
2022-10-07T01:55:28.561Z,100197.75
2022-10-07T01:57:58.127Z,100197.75
2022-10-07T02:00:25.086Z,100192.59
2022-10-07T02:03:21.745Z,100193.63
2022-10-07T02:06:08.254Z,100192.13
2022-10-07T02:08:50.413Z,100188.66
2022-10-07T02:11:21.986Z,100191.38
2022-10-07T02:14:12.010Z,100191.31
2022-10-07T02:16:41.585Z,100192.34
2022-10-07T02:19:11.444Z,100185.56
2022-10-07T02:21:39.355Z,100178.78
2022-10-07T02:24:10.385Z,100174.31
2022-10-07T02:26:41.916Z,100169.16
2022-10-07T02:29:11.021Z,100175.28
2022-10-07T02:31:41.040Z,100160.53
2022-10-07T02:34:14.140Z,100154.41
2022-10-07T02:36:54.857Z,100158.81
2022-10-07T02:39:21.686Z,100158.94
2022-10-07T02:41:51.098Z,100151.16
2022-10-07T02:44:26.144Z,100149.66
2022-10-07T02:47:05.727Z,100143.56
2022-10-07T02:49:38.252Z,100144.53
2022-10-07T02:52:07.903Z,100141.09
2022-10-07T02:54:59.015Z,100148.09
2022-10-07T02:57:30.358Z,100134.22
2022-10-07T02:59:58.763Z,100137.78
2022-10-07T03:02:31.365Z,100141.44
2022-10-07T03:04:59.029Z,100135.38
2022-10-07T03:07:26.849Z,100140.63
2022-10-07T03:09:54.319Z,100140.63
2022-10-07T03:12:20.851Z,100137.25
2022-10-07T03:14:49.992Z,100137.41
2022-10-07T03:17:19.534Z,100139.13
2022-10-07T03:19:46.083Z,100134.09
2022-10-07T03:22:12.820Z,100135.03
2022-10-07T03:24:40.499Z,100139.44
2022-10-07T03:27:07.661Z,100139.66
2022-10-07T03:29:35.472Z,100138.81
2022-10-07T03:32:02.382Z,100133.63
2022-10-07T03:34:30.468Z,100131.88
2022-10-07T03:36:57.816Z,100131.06
2022-10-07T03:39:24.560Z,100126.72
2022-10-07T03:41:51.679Z,100127.66
2022-10-07T03:44:19.517Z,100130.16
2022-10-07T03:46:50.510Z,100120.59
2022-10-07T03:49:18.167Z,100128.34
2022-10-07T03:51:44.726Z,100121.34
2022-10-07T03:54:11.619Z,100122.31
2022-10-07T03:56:38.236Z,100111.84
2022-10-07T03:59:04.928Z,100119.69
2022-10-07T04:01:31.848Z,100124.94
2022-10-07T04:04:00.472Z,100117.94
2022-10-07T04:06:27.461Z,100114.41
2022-10-07T04:08:55.443Z,100111.75
2022-10-07T04:11:24.296Z,100110.03
2022-10-07T04:13:51.958Z,100111.88
2022-10-07T04:16:20.050Z,100100.41
2022-10-07T04:18:47.630Z,100094.19
2022-10-07T04:21:14.510Z,100094.19
2022-10-07T04:23:42.298Z,100088.91
2022-10-07T04:26:12.012Z,100081.84
2022-10-07T04:28:39.251Z,100090.47
2022-10-07T04:31:08.904Z,100086.09
2022-10-07T04:33:39.413Z,100089.63
2022-10-07T04:36:08.855Z,100093.03
2022-10-07T04:38:35.329Z,100093.13
2022-10-07T04:41:07.202Z,100083.63
2022-10-07T04:43:34.652Z,100087.06
2022-10-07T04:46:07.133Z,100083.31
2022-10-07T04:48:33.930Z,100076.16
2022-10-07T04:51:06.420Z,100079.69
2022-10-07T04:53:33.499Z,100077.84
2022-10-07T04:56:00.637Z,100071.84
2022-10-07T04:58:29.016Z,100059.53
2022-10-07T05:00:57.165Z,100064.53
2022-10-07T05:03:25.470Z,100061.00
2022-10-07T05:05:55.264Z,100057.50
2022-10-07T05:08:27.159Z,100057.41
2022-10-07T05:11:00.862Z,100052.94
2022-10-07T05:13:28.420Z,100058.13
2022-10-07T05:15:56.323Z,100059.94
2022-10-07T05:18:24.234Z,100059.03
2022-10-07T05:20:51.460Z,100058.19
2022-10-07T05:23:23.308Z,100059.91
2022-10-07T05:26:02.266Z,100058.31
2022-10-07T05:28:29.124Z,100056.59
2022-10-07T05:31:07.489Z,100058.31
2022-10-07T05:33:35.497Z,100056.59
2022-10-07T05:36:02.438Z,100058.31
2022-10-07T05:38:29.336Z,100056.47
2022-10-07T05:41:00.840Z,100066.00
2022-10-07T05:43:29.857Z,100061.69
2022-10-07T05:46:14.183Z,100052.16
2022-10-07T05:48:41.509Z,100051.34
2022-10-07T05:51:08.778Z,100045.16
2022-10-07T05:53:35.766Z,100044.31
2022-10-07T05:56:10.085Z,100042.47
2022-10-07T05:58:37.022Z,100044.00
2022-10-07T06:01:08.886Z,100042.16
2022-10-07T06:03:40.019Z,100038.50
2022-10-07T06:06:07.241Z,100041.06
2022-10-07T06:08:34.289Z,100042.88
2022-10-07T06:11:34.526Z,100042.00
2022-10-07T06:14:01.713Z,100044.53
2022-10-07T06:16:29.007Z,100038.53
2022-10-07T06:18:56.201Z,100038.50
2022-10-07T06:21:28.032Z,100038.50
2022-10-07T06:23:56.566Z,100033.06
2022-10-07T06:26:23.674Z,100038.38
2022-10-07T06:28:50.423Z,100037.53
2022-10-07T06:31:24.696Z,100030.41
2022-10-07T06:33:52.083Z,100033.94
2022-10-07T06:36:18.665Z,100033.84
2022-10-07T06:38:47.248Z,100039.03
2022-10-07T06:41:14.257Z,100041.09
2022-10-07T06:43:41.219Z,100048.19
2022-10-07T06:46:10.120Z,100047.03
2022-10-07T06:48:36.867Z,100040.88
2022-10-07T06:51:03.770Z,100041.47
2022-10-07T06:53:31.176Z,100043.19
2022-10-07T06:56:02.050Z,100039.66
2022-10-07T06:58:28.825Z,100048.25
2022-10-07T07:00:56.373Z,100044.47
2022-10-07T07:03:23.640Z,100043.41
2022-10-07T07:05:54.478Z,100039.63
2022-10-07T07:08:27.818Z,100040.19
2022-10-07T07:10:54.843Z,100034.72
2022-10-07T07:13:21.496Z,100033.63
2022-10-07T07:15:56.290Z,100034.34
2022-10-07T07:18:23.415Z,100033.13
2022-10-07T07:20:50.265Z,100030.31
2022-10-07T07:23:16.871Z,100030.94
2022-10-07T07:25:46.377Z,100033.59
2022-10-07T07:28:15.848Z,100027.16
2022-10-07T07:30:42.896Z,100028.72
2022-10-07T07:33:10.084Z,100030.50
2022-10-07T07:35:41.428Z,100026.59
2022-10-07T07:38:08.718Z,100028.81
2022-10-07T07:40:39.548Z,100020.59
2022-10-07T07:43:07.185Z,100021.69
2022-10-07T07:45:36.845Z,100024.78
2022-10-07T07:48:04.161Z,100026.50
2022-10-07T07:50:30.746Z,100021.25
2022-10-07T07:52:57.723Z,100013.91
2022-10-07T07:55:24.482Z,100015.59
2022-10-07T07:57:51.117Z,100006.41
2022-10-07T08:00:18.546Z,100001.81
2022-10-07T08:02:45.310Z,99994.63
2022-10-07T08:05:13.272Z,99994.56
2022-10-07T08:07:40.056Z,99999.88
2022-10-07T08:10:07.156Z,100005.88
2022-10-07T08:12:34.000Z,99998.38
2022-10-07T08:15:00.629Z,99984.97
2022-10-07T08:17:27.229Z,99991.72
2022-10-07T08:19:55.334Z,99990.59
2022-10-07T08:22:22.281Z,99981.50
2022-10-07T08:24:48.889Z,99975.84
2022-10-07T08:27:15.864Z,99978.94
2022-10-07T08:29:42.591Z,99977.63
2022-10-07T08:32:09.179Z,99967.44
2022-10-07T08:34:36.610Z,99968.94
2022-10-07T08:37:03.490Z,99966.72
2022-10-07T08:39:31.266Z,99965.59
2022-10-07T08:42:23.223Z,99951.13
2022-10-07T08:44:50.910Z,99947.88
2022-10-07T08:47:23.482Z,99939.41
2022-10-07T08:50:08.062Z,99941.56
2022-10-07T08:52:45.673Z,99931.38
2022-10-07T08:55:36.444Z,99926.34
2022-10-07T08:58:36.962Z,99931.81
2022-10-07T09:01:37.988Z,99919.72
2022-10-07T09:04:26.109Z,99923.88
2022-10-07T09:07:22.981Z,99920.72
2022-10-07T09:09:57.872Z,99911.16
2022-10-07T09:12:46.921Z,99908.16
2022-10-07T09:15:39.958Z,99900.41
2022-10-07T09:18:17.945Z,99898.56
2022-10-07T09:20:52.421Z,99883.19
2022-10-07T09:23:23.130Z,99887.59
2022-10-07T09:25:49.953Z,99881.59
2022-10-07T09:28:18.899Z,99874.50
2022-10-07T09:30:45.693Z,99863.91
2022-10-07T09:33:16.478Z,99863.72
2022-10-07T09:35:57.443Z,99854.88
2022-10-07T09:38:37.472Z,99855.78
2022-10-07T09:41:16.364Z,99854.44
2022-10-07T09:44:00.778Z,99847.34
2022-10-07T09:46:41.317Z,99847.19
2022-10-07T09:49:25.778Z,99839.00
2022-10-07T09:51:58.605Z,99839.69
2022-10-07T09:54:25.947Z,99828.22
2022-10-07T09:56:59.576Z,99822.59
2022-10-07T09:59:30.298Z,99822.53
2022-10-07T10:01:58.023Z,99815.38
2022-10-07T10:04:37.330Z,99815.63
2022-10-07T10:07:18.021Z,99812.84
2022-10-07T10:09:51.855Z,99802.94
2022-10-07T10:12:20.667Z,99800.25
2022-10-07T10:15:00.067Z,99800.84
2022-10-07T10:17:29.610Z,99796.38
2022-10-07T10:20:16.527Z,99787.03
2022-10-07T10:22:43.396Z,99780.44
2022-10-07T10:25:29.940Z,99772.63
2022-10-07T10:28:38.353Z,99767.63
2022-10-07T10:31:26.237Z,99763.53
2022-10-07T10:34:16.426Z,99760.28
2022-10-07T10:36:49.699Z,99754.72
2022-10-07T10:39:27.493Z,99751.19
2022-10-07T10:42:00.619Z,99740.25
2022-10-07T10:44:33.545Z,99732.47
2022-10-07T10:47:00.175Z,99738.00
2022-10-07T10:49:38.399Z,99732.16
2022-10-07T10:52:34.263Z,99726.06
2022-10-07T10:55:24.041Z,99724.19
2022-10-07T10:58:38.286Z,99720.34
2022-10-07T11:01:34.968Z,99712.28
2022-10-07T11:04:22.665Z,99716.84
2022-10-07T11:06:57.813Z,99702.63
2022-10-07T11:09:41.852Z,99696.50
2022-10-07T11:12:29.212Z,99691.47
2022-10-07T11:15:02.478Z,99690.94
2022-10-07T11:17:36.442Z,99683.09
2022-10-07T11:20:15.114Z,99672.19
2022-10-07T11:22:49.181Z,99664.66
2022-10-07T11:25:31.635Z,99655.53
2022-10-07T11:28:09.156Z,99652.00
2022-10-07T11:30:51.022Z,99652.31
2022-10-07T11:33:27.339Z,99640.38
2022-10-07T11:36:02.144Z,99639.66
2022-10-07T11:38:33.756Z,99640.38
2022-10-07T11:41:22.514Z,99629.53
2022-10-07T11:43:57.160Z,99627.09
2022-10-07T11:46:35.058Z,99613.81
2022-10-07T11:49:31.804Z,99604.88
2022-10-07T11:52:26.742Z,99610.41
2022-10-07T11:55:00.790Z,99598.25
2022-10-07T11:57:31.559Z,99590.22
2022-10-07T12:00:02.230Z,99582.44
2022-10-07T12:02:28.854Z,99588.56
2022-10-07T12:05:00.224Z,99581.56
2022-10-07T12:07:35.105Z,99570.28
2022-10-07T12:10:05.091Z,99573.22
2022-10-07T12:12:47.445Z,99565.88
2022-10-07T12:15:53.442Z,99554.38
2022-10-07T12:18:26.260Z,99552.66
2022-10-07T12:20:59.446Z,99546.38
2022-10-07T12:23:26.006Z,99541.38
2022-10-07T12:25:53.702Z,99527.34
2022-10-07T12:28:48.765Z,99523.66
2022-10-07T12:31:15.458Z,99523.00
2022-10-07T12:34:06.234Z,99512.53
2022-10-07T12:36:33.174Z,99509.91
2022-10-07T12:38:59.729Z,99501.91
2022-10-07T12:41:28.971Z,99492.34
2022-10-07T12:44:02.551Z,99487.84
2022-10-07T12:46:33.512Z,99496.25
2022-10-07T12:49:02.567Z,99479.47
2022-10-07T12:51:41.705Z,99476.00
2022-10-07T12:54:20.278Z,99473.38
2022-10-07T12:56:48.359Z,99468.47
2022-10-07T12:59:48.592Z,99459.22
2022-10-07T13:02:36.457Z,99464.00
2022-10-07T13:05:30.174Z,99460.75
2022-10-07T13:08:15.311Z,99448.00
2022-10-07T13:11:08.357Z,99445.34
2022-10-07T13:14:09.396Z,99449.97
2022-10-07T13:16:44.539Z,99439.84
2022-10-07T13:19:20.326Z,99438.00
2022-10-07T13:21:55.155Z,99433.50
2022-10-07T13:24:26.601Z,99427.56
2022-10-07T13:26:53.262Z,99431.84
2022-10-07T13:29:31.697Z,99413.59
2022-10-07T13:32:15.098Z,99412.34
2022-10-07T13:34:42.727Z,99413.97
2022-10-07T13:37:45.238Z,99398.53
2022-10-07T13:40:25.794Z,99404.63
2022-10-07T13:43:00.756Z,99398.38
2022-10-07T13:45:28.930Z,99392.06
2022-10-07T13:47:57.818Z,99389.78
2022-10-07T13:50:30.815Z,99385.88
2022-10-07T13:52:58.472Z,99376.72
2022-10-07T13:55:32.974Z,99369.00
2022-10-07T13:58:04.358Z,99361.56
2022-10-07T14:00:40.601Z,99359.34
2022-10-07T14:03:18.146Z,99362.13
2022-10-07T14:05:51.985Z,99362.41
2022-10-07T14:08:21.489Z,99350.44
2022-10-07T14:10:53.808Z,99351.78
2022-10-07T14:13:20.485Z,99352.50
2022-10-07T14:15:51.422Z,99348.34
2022-10-07T14:18:18.624Z,99334.44
2022-10-07T14:20:54.545Z,99350.84
2022-10-07T14:23:41.410Z,99341.41
2022-10-07T14:26:14.272Z,99335.47
2022-10-07T14:28:42.992Z,99333.47
2022-10-07T14:31:28.312Z,99326.88
2022-10-07T14:34:28.839Z,99326.50
2022-10-07T14:37:01.470Z,99330.47
2022-10-07T14:39:43.033Z,99324.44
2022-10-07T14:42:16.118Z,99325.13
2022-10-07T14:44:44.134Z,99317.75
2022-10-07T14:47:16.173Z,99312.38
2022-10-07T14:49:42.737Z,99319.09
2022-10-07T14:52:29.370Z,99313.59
2022-10-07T14:54:58.113Z,99310.56
2022-10-07T14:57:27.913Z,99306.94
2022-10-07T14:59:55.037Z,99310.25
2022-10-07T15:02:22.336Z,99302.91
2022-10-07T15:04:49.534Z,99312.38
2022-10-07T15:07:16.899Z,99307.34
2022-10-07T15:09:45.184Z,99307.09
2022-10-07T15:12:13.846Z,99309.81
2022-10-07T15:14:40.727Z,99303.47
2022-10-07T15:17:07.819Z,99296.69
2022-10-07T15:19:34.792Z,99301.94
2022-10-07T15:22:01.379Z,99305.63
2022-10-07T15:24:29.234Z,99303.50
2022-10-07T15:26:55.884Z,99302.63
2022-10-07T15:29:22.531Z,99301.88
2022-10-07T15:31:49.414Z,99295.91
2022-10-07T15:34:16.159Z,99298.94
2022-10-07T15:36:43.317Z,99298.47
2022-10-07T15:39:10.309Z,99288.56
2022-10-07T15:41:45.750Z,99286.56
2022-10-07T15:44:16.140Z,99293.94
2022-10-07T15:46:43.721Z,99301.34
2022-10-07T15:49:10.443Z,99286.94
2022-10-07T15:51:37.054Z,99292.00
2022-10-07T15:54:05.488Z,99285.63
2022-10-07T15:56:32.486Z,99291.53
2022-10-07T15:59:00.576Z,99292.88
2022-10-07T16:01:28.397Z,99292.38
2022-10-07T16:03:55.020Z,99288.19
2022-10-07T16:06:26.846Z,99291.22
2022-10-07T16:08:57.906Z,99289.22
2022-10-07T16:11:26.428Z,99286.69
2022-10-07T16:13:53.296Z,99286.97
2022-10-07T16:16:25.502Z,99285.66
2022-10-07T16:18:54.854Z,99288.31
2022-10-07T16:21:24.278Z,99282.91
2022-10-07T16:23:56.021Z,99286.56
2022-10-07T16:26:26.971Z,99284.91
2022-10-07T16:29:13.093Z,99282.22
2022-10-07T16:31:41.680Z,99293.84
2022-10-07T16:34:11.121Z,99288.44
2022-10-07T16:36:42.096Z,99282.00
2022-10-07T16:39:11.581Z,99283.69
2022-10-07T16:41:41.699Z,99283.34
2022-10-07T16:44:08.710Z,99283.63
2022-10-07T16:46:35.607Z,99280.41
2022-10-07T16:49:05.987Z,99283.56
2022-10-07T16:51:36.363Z,99276.81
2022-10-07T16:54:05.396Z,99281.13
2022-10-07T16:56:35.830Z,99292.41
2022-10-07T16:59:06.877Z,99289.06
2022-10-07T17:01:33.983Z,99294.03
2022-10-07T17:04:01.317Z,99285.94
2022-10-07T17:06:29.961Z,99297.28
2022-10-07T17:09:01.217Z,99293.69
2022-10-07T17:11:30.671Z,99293.78
2022-10-07T17:13:58.802Z,99295.28
2022-10-07T17:16:27.463Z,99295.28
2022-10-07T17:18:54.226Z,99289.03
2022-10-07T17:21:21.162Z,99291.84
2022-10-07T17:23:48.308Z,99294.44
2022-10-07T17:26:15.980Z,99293.91
2022-10-07T17:28:42.906Z,99291.66
2022-10-07T17:31:12.316Z,99294.28
2022-10-07T17:33:45.361Z,99299.81
2022-10-07T17:36:14.407Z,99299.59
2022-10-07T17:38:45.229Z,99302.44
2022-10-07T17:41:29.601Z,99293.91
2022-10-07T17:43:58.599Z,99297.63
2022-10-07T17:46:27.394Z,99297.06
2022-10-07T17:48:56.379Z,99295.00
2022-10-07T17:51:27.801Z,99293.47
2022-10-07T17:54:04.781Z,99290.38
2022-10-07T17:56:32.356Z,99283.38
2022-10-07T17:58:59.545Z,99292.78
2022-10-07T18:01:28.833Z,99293.81
2022-10-07T18:04:04.347Z,99287.34
2022-10-07T18:06:33.709Z,99283.97
2022-10-07T18:09:03.038Z,99282.59
2022-10-07T18:11:48.520Z,99284.72
2022-10-07T18:14:33.821Z,99289.66
2022-10-07T18:17:00.349Z,99276.91
2022-10-07T18:19:27.590Z,99282.66
2022-10-07T18:21:56.346Z,99282.13
2022-10-07T18:24:23.969Z,99273.00
2022-10-07T18:26:50.561Z,99276.13
2022-10-07T18:29:18.522Z,99271.47
2022-10-07T18:31:45.267Z,99268.13
2022-10-07T18:34:12.104Z,99272.78
2022-10-07T18:36:38.879Z,99267.56
2022-10-07T18:39:11.321Z,99263.09
2022-10-07T18:41:38.268Z,99264.09
2022-10-07T18:44:05.562Z,99266.19
2022-10-07T18:46:32.974Z,99260.31
2022-10-07T18:48:59.716Z,99259.75
2022-10-07T18:51:26.455Z,99248.38
2022-10-07T18:53:53.120Z,99245.44
2022-10-07T18:56:22.548Z,99253.56
2022-10-07T18:58:51.309Z,99246.31
2022-10-07T19:01:20.903Z,99243.78
2022-10-07T19:03:49.002Z,99241.38
2022-10-07T19:06:18.463Z,99243.19
2022-10-07T19:08:46.168Z,99239.13
2022-10-07T19:11:18.356Z,99239.25
2022-10-07T19:13:48.323Z,99241.19
2022-10-07T19:16:15.769Z,99240.34
2022-10-07T19:18:43.684Z,99234.06
2022-10-07T19:21:11.682Z,99238.97
2022-10-07T19:23:40.563Z,99235.31
2022-10-07T19:26:08.711Z,99227.34
2022-10-07T19:28:39.274Z,99225.06
2022-10-07T19:31:18.071Z,99223.41
2022-10-07T19:33:46.265Z,99224.09
2022-10-07T19:36:14.603Z,99216.53
2022-10-07T19:38:44.338Z,99222.97
2022-10-07T19:41:13.545Z,99226.03
2022-10-07T19:43:42.160Z,99231.91
2022-10-07T19:46:10.098Z,99222.38
2022-10-07T19:48:38.609Z,99220.13
2022-10-07T19:51:12.230Z,99235.25
2022-10-07T19:53:46.617Z,99222.94
2022-10-07T19:56:23.022Z,99227.69
2022-10-07T19:58:51.798Z,99225.16
2022-10-07T20:01:21.299Z,99212.84
2022-10-07T20:03:48.942Z,99220.97
2022-10-07T20:06:16.271Z,99226.31
2022-10-07T20:08:44.884Z,99222.78
2022-10-07T20:11:12.297Z,99218.16
2022-10-07T20:13:40.410Z,99215.91
2022-10-07T20:16:11.660Z,99218.56
2022-10-07T20:18:40.781Z,99203.56
2022-10-07T20:21:11.387Z,99211.69
2022-10-07T20:23:40.692Z,99201.03
2022-10-07T20:26:19.094Z,99208.31
2022-10-07T20:28:51.360Z,99200.50
2022-10-07T20:31:21.390Z,99202.69
2022-10-07T20:33:53.935Z,99193.31
2022-10-07T20:36:32.810Z,99185.34
2022-10-07T20:39:24.041Z,99191.47
2022-10-07T20:42:10.270Z,99182.50
2022-10-07T20:44:37.233Z,99191.75
2022-10-07T20:47:06.274Z,99189.22
2022-10-07T20:49:33.955Z,99190.88
2022-10-07T20:52:03.354Z,99188.75
2022-10-07T20:54:32.057Z,99181.88
2022-10-07T20:56:59.252Z,99188.44
2022-10-07T20:59:26.759Z,99176.56
2022-10-07T21:01:53.962Z,99181.03
2022-10-07T21:04:21.528Z,99170.28
2022-10-07T21:06:51.385Z,99175.72
2022-10-07T21:09:19.391Z,99175.19
2022-10-07T21:11:49.799Z,99168.88
2022-10-07T21:14:17.743Z,99167.91
2022-10-07T21:16:45.377Z,99159.22
2022-10-07T21:19:12.677Z,99162.72
2022-10-07T21:21:39.913Z,99163.16
2022-10-07T21:24:07.366Z,99157.00
2022-10-07T21:26:35.420Z,99155.06
2022-10-07T21:29:04.121Z,99158.13
2022-10-07T21:31:31.373Z,99157.59
2022-10-07T21:33:59.570Z,99151.59
2022-10-07T21:36:26.378Z,99154.38
2022-10-07T21:38:58.952Z,99147.00
2022-10-07T21:41:38.757Z,99142.78
2022-10-07T21:44:09.349Z,99145.84
2022-10-07T21:46:36.896Z,99144.75
2022-10-07T21:49:06.194Z,99142.94
2022-10-07T21:51:34.471Z,99134.66
2022-10-07T21:54:02.053Z,99146.72
2022-10-07T21:56:30.455Z,99148.41
2022-10-07T21:59:00.583Z,99140.16
2022-10-07T22:01:28.239Z,99138.63
2022-10-07T22:03:57.550Z,99144.66
2022-10-07T22:06:45.285Z,99135.53
2022-10-07T22:09:13.880Z,99140.00
2022-10-07T22:11:40.589Z,99133.28
2022-10-07T22:14:12.250Z,99121.81
2022-10-07T22:16:39.778Z,99132.59
2022-10-07T22:19:06.598Z,99134.72
2022-10-07T22:21:35.832Z,99131.19
2022-10-07T22:24:05.070Z,99126.84
2022-10-07T22:26:39.136Z,99127.00
2022-10-07T22:29:08.103Z,99116.47
2022-10-07T22:31:34.900Z,99123.78
2022-10-07T22:34:04.207Z,99121.81
2022-10-07T22:36:30.802Z,99113.25
2022-10-07T22:38:59.154Z,99115.22
2022-10-07T22:41:26.486Z,99116.47
2022-10-07T22:43:53.580Z,99117.75
2022-10-07T22:46:26.897Z,99109.63
2022-10-07T22:48:56.310Z,99105.69
2022-10-07T22:51:24.529Z,99107.50
2022-10-07T22:53:54.473Z,99105.16
2022-10-07T22:56:23.128Z,99097.44
2022-10-07T22:58:57.918Z,99092.53
2022-10-07T23:01:26.162Z,99082.31
2022-10-07T23:03:53.108Z,99093.94
2022-10-07T23:06:19.957Z,99090.69
2022-10-07T23:08:47.937Z,99079.50
2022-10-07T23:11:17.271Z,99085.69
2022-10-07T23:13:44.819Z,99084.97
2022-10-07T23:16:15.405Z,99088.47
2022-10-07T23:18:44.776Z,99085.69
2022-10-07T23:21:14.192Z,99086.78
2022-10-07T23:23:41.942Z,99084.56
2022-10-07T23:26:20.826Z,99082.28
2022-10-07T23:28:49.407Z,99077.53
2022-10-07T23:31:18.553Z,99072.78
2022-10-07T23:33:47.603Z,99069.00
2022-10-07T23:36:16.026Z,99071.94
2022-10-07T23:38:44.669Z,99062.84
2022-10-07T23:41:13.134Z,99066.91
2022-10-07T23:43:39.717Z,99068.84
2022-10-07T23:46:10.548Z,99065.22
2022-10-07T23:48:37.173Z,99074.47
2022-10-07T23:51:04.855Z,99074.47
2022-10-07T23:53:33.049Z,99074.03
2022-10-07T23:55:59.994Z,99062.97
2022-10-07T23:58:28.616Z,99072.34
